Carora, Venezuela
Current Conditions -  °F | °C
As of 6:00 AM on Saturday 25 Oct 2014 (Local Time) from SVBM Reporting Station
Broken Clouds Broken Clouds  
Wind Chill: 73°   Ceiling: 1300
Heat Index: 73°   Visibility: 6mi
Dew Point: 70°   Wind: 6mph
Humidity: 88%   Direction: 110°ESE
Pressure: 29.91"   Gusts: NA
Location:  10.19°N, 70.08°W
Report Text: SVBM 251000Z 11005KT 9999 BKN013 23/21 Q1013
Loading
Personal Weather Stations






























Interactive Weather Map
Tropical Storm Tracking
New forecast layout! Learn more

10-Day Weather Forecast

Advertisements
Track Severe Weather on mobile